Main page
METAR-TAF:

METAR-TAF

Airports :

RAF Scampton

Scampton, England

latitude: 53-18-27N, longitude: 000-33-03W, elevation: 62 m

Current weather observation

The report was made 48 minutes ago, at 23:50 UTC
Wind 11 kt from the North/Northeast
Temperature 9°C
Humidity 87%
Pressure 1026 hPa
Visibility: 9000 m

METAR: EGXP 232350Z AUTO 03011KT 9000 // OVC004/// 09/07 Q1026

Time: 01:38 (00:38 UTC)

Forecast

The report was made 13 hours and 40 minutes ago, at 10:58 UTC
Forecast valid from 23 at 12 UTC to 23 at 17 UTC
Wind 14 kt from the Northeast
Visibility 10 km or more
Scattered clouds at a height of 1200 ft
Becoming
from 23 at 12 UTC to 23 at 14 UTC
Few clouds at a height of 1500 ft
Probability 30% :
Temporary
from 23 at 12 UTC to 23 at 17 UTC
Wind 15 kt from the Northeast with gusts up to 25 kt

TAF: EGXP 231058Z 2312/2317 04014KT 9999 SCT012 BECMG 2312/2314 FEW015 PROB30 TEMPO 2312/2317 04015G25KT

Weather observations and forecasts of more than 4000 airports (METAR and TAF reports).

The available stations are represented by yellow and red dots on the map.

Hover mouse over dot to see the name of the station.

Then click to see weather observations and forecasts.

To change the map : click on the green buttons with a black cross to zoom in, on the green button with a dash to zoom out, or on the green arrows for adjacent maps.


METAR-TAF: